Shingleton, Michigan
Current Conditions -  °F | °C
As of 4:55 AM on Saturday 29 Nov 2014 (Local Time) from KISQ Reporting Station
Haze Haze  
Wind Chill: 23°   Ceiling: 500
Heat Index: 32°   Visibility: 4mi
Dew Point: 32°   Wind: 12mph
Humidity: 100%   Direction: 170°S
Pressure: 29.78"   Gusts: 18mph
Location:  46.35°N, 86.47°W
Report Text: KISQ 290955Z AUTO 17010G16KT 4SM BR OVC005 00/00 A2978 RMK AO2 T00000000
Loading
Personal Weather Stations






























Interactive Weather Map New forecast layout! Learn more

10-Day Weather Forecast

Advertisements
Track Severe Weather on mobile